Terminal Aerodrome Forecast
Issued by NWS Omaha/Valley, NE

Home | Current Version | Previous Version | Graphics & Text | Print | Product List | Glossary On
Versions: 1 2 3 4 5 6 7 8 9 10 11 12 13 14 15 16 17 18 19 20 21
000
FTUS43 KOAX 171041 AAB
TAFOFK
TAF AMD
KOFK 171041Z 1711/1806 18016G23KT P6SM OVC011
      TEMPO 1712/1715 2SM BR OVC003
     FM171600 24009KT P6SM OVC015
     FM171800 27009KT P6SM BKN110
     FM172300 34008KT P6SM BKN110=

USA.gov is the U.S. government's official web portal to all federal, state and local government web resources and services.